LFOP

Rouen Airport

Rouen/Vallée de Seine, France
TAF LFOP 171700Z 1718/1818 30006KT CAVOK BECMG 1810/1812 15010KT
Issued Valid From Valid To
Jan-17 @ 17:00 UTC
(6 hours ago)
Jan-17 @ 18:00 UTC
(5 hours ago)
Jan-18 @ 18:00 UTC
(in 19 hours)
Jan-17 @ 18:00 to Jan-18 @ 10:00
TAF LFOP 171700Z 1718/1818 30006KT CAVOK
Wind Visibility Clouds Conditions
300° at 6 knots 10,000+ meters
  • No significant clouds
Becoming Jan-18 @ 10:00 to Jan-18 @ 18:00
BECMG 1810/1812 15010KT
Wind Visibility Clouds Conditions
150° at 10 knots 10,000+ meters
  • No significant clouds
TAF LFOP 171700Z 1718/1818 30006KT CAVOK BECMG 1810/1812 15010KT
Issued Jan-17 @ 17:00 UTC
(6 hours ago)
Valid From Jan-17 @ 18:00 UTC
(5 hours ago)
Valid To Jan-18 @ 18:00 UTC
(in 19 hours)
Jan-17 @ 18:00 - Jan-18 @ 10:00
Wind Visibility
300° at 6 knots 10,000+ meters
Clouds
  • No significant clouds
Conditions
Becoming Jan-18 @ 10:00 - Jan-18 @ 18:00
Wind Visibility
150° at 10 knots 10,000+ meters
Clouds
  • No significant clouds
Conditions